Time,TemperatureF,DewpointF,PressureIn,WindDirection,WindDirectionDegrees,WindSpeedMPH,WindSpeedGustMPH,Humidity,HourlyPrecipIn,Conditions,Clouds,dailyrainin,SoftwareType,DateUTC
2013-07-30 00:05:00,56.7,52.6,30.17,WNW,285,5.0,8.0,86,0.00,,,0.00,Wunderground v.1.15,2013-07-30 08:05:00,
2013-07-30 00:10:00,56.9,52.4,30.17,WNW,288,5.0,8.0,85,0.00,,,0.00,Wunderground v.1.15,2013-07-30 08:10:00,
2013-07-30 00:16:00,56.6,52.1,30.17,WNW,282,4.0,8.0,85,0.00,,,0.00,Wunderground v.1.15,2013-07-30 08:16:00,
2013-07-30 00:21:00,56.6,52.5,30.17,WNW,283,4.0,8.0,86,0.00,,,0.00,Wunderground v.1.15,2013-07-30 08:21:00,
2013-07-30 00:27:00,56.7,52.6,30.17,WNW,291,3.0,8.0,86,0.00,,,0.00,Wunderground v.1.15,2013-07-30 08:27:00,
2013-07-30 00:33:00,56.5,52.4,30.17,WNW,284,3.0,8.0,86,0.00,,,0.00,Wunderground v.1.15,2013-07-30 08:33:00,
2013-07-30 00:39:00,56.6,52.5,30.17,WNW,287,4.0,8.0,86,0.00,,,0.00,Wunderground v.1.15,2013-07-30 08:39:00,
2013-07-30 00:45:00,56.4,52.3,30.17,WNW,283,5.0,8.0,86,0.00,,,0.00,Wunderground v.1.15,2013-07-30 08:45:00,
2013-07-30 00:50:00,56.4,52.6,30.17,WNW,282,4.0,8.0,87,0.00,,,0.00,Wunderground v.1.15,2013-07-30 08:50:00,
2013-07-30 00:56:00,56.4,52.9,30.17,West,277,3.0,8.0,88,0.00,,,0.00,Wunderground v.1.15,2013-07-30 08:56:00,
2013-07-30 01:02:00,56.7,52.9,30.17,West,273,3.0,5.0,87,0.00,,,0.00,Wunderground v.1.15,2013-07-30 09:02:00,
2013-07-30 01:07:00,56.7,52.9,30.17,West,274,3.0,5.0,87,0.00,,,0.00,Wunderground v.1.15,2013-07-30 09:07:00,
2013-07-30 01:12:00,56.6,52.8,30.17,West,272,2.0,5.0,87,0.00,,,0.00,Wunderground v.1.15,2013-07-30 09:12:00,
2013-07-30 01:17:00,56.6,52.8,30.17,West,266,2.0,5.0,87,0.00,,,0.00,Wunderground v.1.15,2013-07-30 09:17:00,
2013-07-30 01:23:00,56.5,52.7,30.18,West,266,1.0,5.0,87,0.00,,,0.00,Wunderground v.1.15,2013-07-30 09:23:00,
2013-07-30 01:29:00,56.3,52.8,30.18,West,266,0.0,5.0,88,0.00,,,0.00,Wunderground v.1.15,2013-07-30 09:29:00,
2013-07-30 01:35:00,56.2,52.4,30.18,West,266,0.0,5.0,87,0.00,,,0.00,Wunderground v.1.15,2013-07-30 09:35:00,
2013-07-30 01:41:00,56.1,52.6,30.18,West,266,0.0,5.0,88,0.00,,,0.00,Wunderground v.1.15,2013-07-30 09:41:00,
2013-07-30 01:47:00,55.9,52.4,30.18,West,271,1.0,5.0,88,0.00,,,0.00,Wunderground v.1.15,2013-07-30 09:47:00,
2013-07-30 01:52:00,55.8,52.6,30.18,West,274,3.0,5.0,89,0.00,,,0.00,Wunderground v.1.15,2013-07-30 09:52:00,
2013-07-30 01:58:00,55.7,52.2,30.18,West,264,4.0,5.0,88,0.00,,,0.00,Wunderground v.1.15,2013-07-30 09:58:00,
2013-07-30 02:03:00,55.7,52.5,30.18,WNW,287,4.0,6.0,89,0.00,,,0.00,Wunderground v.1.15,2013-07-30 10:03:00,
2013-07-30 02:09:00,55.6,52.1,30.18,WNW,284,4.0,6.0,88,0.00,,,0.00,Wunderground v.1.15,2013-07-30 10:09:00,
2013-07-30 02:14:00,55.4,52.2,30.18,West,274,4.0,6.0,89,0.00,,,0.00,Wunderground v.1.15,2013-07-30 10:14:00,
2013-07-30 02:20:00,55.4,52.2,30.18,West,278,5.0,6.0,89,0.00,,,0.00,Wunderground v.1.15,2013-07-30 10:20:00,
2013-07-30 02:26:00,55.2,52.0,30.18,WNW,290,5.0,7.0,89,0.00,,,0.00,Wunderground v.1.15,2013-07-30 10:26:00,
2013-07-30 02:32:00,55.3,52.1,30.18,West,270,5.0,6.0,89,0.00,,,0.00,Wunderground v.1.15,2013-07-30 10:32:00,
2013-07-30 02:38:00,55.5,52.3,30.18,WNW,287,5.0,6.0,89,0.00,,,0.00,Wunderground v.1.15,2013-07-30 10:38:00,
2013-07-30 02:43:00,55.6,52.1,30.17,West,271,5.0,6.0,88,0.00,,,0.00,Wunderground v.1.15,2013-07-30 10:43:00,
2013-07-30 02:49:00,55.7,52.2,30.18,West,278,5.0,5.0,88,0.00,,,0.00,Wunderground v.1.15,2013-07-30 10:49:00,
2013-07-30 02:55:00,56.1,52.6,30.18,West,270,5.0,6.0,88,0.00,,,0.00,Wunderground v.1.15,2013-07-30 10:55:00,
2013-07-30 03:01:00,56.1,52.6,30.17,West,270,3.0,7.0,88,0.00,,,0.00,Wunderground v.1.15,2013-07-30 11:01:00,
2013-07-30 03:07:00,55.9,52.4,30.18,WSW,243,2.0,7.0,88,0.00,,,0.00,Wunderground v.1.15,2013-07-30 11:07:00,
2013-07-30 03:13:00,55.7,52.2,30.18,West,261,1.0,7.0,88,0.00,,,0.00,Wunderground v.1.15,2013-07-30 11:13:00,
2013-07-30 03:19:00,55.5,52.3,30.17,West,263,2.0,7.0,89,0.00,,,0.00,Wunderground v.1.15,2013-07-30 11:19:00,
2013-07-30 03:25:00,55.6,52.1,30.18,WNW,283,3.0,7.0,88,0.00,,,0.00,Wunderground v.1.15,2013-07-30 11:25:00,
2013-07-30 03:31:00,55.4,51.9,30.18,WNW,285,4.0,7.0,88,0.00,,,0.00,Wunderground v.1.15,2013-07-30 11:31:00,
2013-07-30 03:37:00,55.2,51.7,30.18,West,269,3.0,7.0,88,0.00,,,0.00,Wunderground v.1.15,2013-07-30 11:37:00,
2013-07-30 03:42:00,55.0,51.8,30.18,WNW,286,3.0,7.0,89,0.00,,,0.00,Wunderground v.1.15,2013-07-30 11:42:00,
2013-07-30 03:48:00,55.2,52.0,30.18,WNW,289,4.0,7.0,89,0.00,,,0.00,Wunderground v.1.15,2013-07-30 11:48:00,
2013-07-30 03:53:00,55.0,51.8,30.18,WNW,286,5.0,7.0,89,0.00,,,0.00,Wunderground v.1.15,2013-07-30 11:53:00,
2013-07-30 03:59:00,55.2,52.0,30.18,WNW,285,4.0,4.0,89,0.00,,,0.00,Wunderground v.1.15,2013-07-30 11:59:00,
2013-07-30 04:05:00,55.3,52.1,30.18,WNW,286,5.0,7.0,89,0.00,,,0.00,Wunderground v.1.15,2013-07-30 12:05:00,
2013-07-30 04:10:00,55.4,52.2,30.17,WNW,295,5.0,6.0,89,0.00,,,0.00,Wunderground v.1.15,2013-07-30 12:10:00,
2013-07-30 04:16:00,55.7,52.5,30.17,WNW,284,5.0,7.0,89,0.00,,,0.00,Wunderground v.1.15,2013-07-30 12:16:00,
2013-07-30 04:21:00,56.0,52.8,30.17,WNW,283,5.0,7.0,89,0.00,,,0.00,Wunderground v.1.15,2013-07-30 12:21:00,
2013-07-30 04:27:00,55.8,52.3,30.17,WNW,301,3.0,7.0,88,0.00,,,0.00,Wunderground v.1.15,2013-07-30 12:27:00,
2013-07-30 04:32:00,55.4,51.9,30.17,NNW,333,2.0,7.0,88,0.00,,,0.00,Wunderground v.1.15,2013-07-30 12:32:00,
2013-07-30 04:38:00,55.4,52.2,30.17,NNW,333,0.0,7.0,89,0.00,,,0.00,Wunderground v.1.15,2013-07-30 12:38:00,
2013-07-30 04:44:00,55.3,52.1,30.18,NNW,333,0.0,7.0,89,0.00,,,0.00,Wunderground v.1.15,2013-07-30 12:44:00,
2013-07-30 04:49:00,55.2,52.0,30.18,NNW,333,0.0,7.0,89,0.00,,,0.00,Wunderground v.1.15,2013-07-30 12:49:00,
2013-07-30 04:55:00,55.0,52.1,30.18,NNW,327,0.0,7.0,90,0.00,,,0.00,Wunderground v.1.15,2013-07-30 12:55:00,
2013-07-30 05:01:00,55.0,52.1,30.18,NNW,328,1.0,2.0,90,0.00,,,0.00,Wunderground v.1.15,2013-07-30 13:01:00,
2013-07-30 05:06:00,54.9,52.0,30.18,NNW,328,0.0,2.0,90,0.00,,,0.00,Wunderground v.1.15,2013-07-30 13:06:00,
2013-07-30 05:11:00,54.9,52.0,30.18,NNW,327,0.0,2.0,90,0.00,,,0.00,Wunderground v.1.15,2013-07-30 13:11:00,
2013-07-30 05:17:00,54.8,52.2,30.18,NNW,327,0.0,2.0,91,0.00,,,0.00,Wunderground v.1.15,2013-07-30 13:17:00,
2013-07-30 05:23:00,54.8,52.2,30.17,NNW,327,0.0,2.0,91,0.00,,,0.00,Wunderground v.1.15,2013-07-30 13:23:00,
2013-07-30 05:28:00,54.6,52.0,30.18,NNW,342,0.0,2.0,91,0.00,,,0.00,Wunderground v.1.15,2013-07-30 13:28:00,
2013-07-30 05:33:00,54.4,51.8,30.18,NNW,343,0.0,2.0,91,0.00,,,0.00,Wunderground v.1.15,2013-07-30 13:33:00,
2013-07-30 05:34:00,54.4,51.8,30.18,NNW,342,0.0,2.0,91,0.00,,,0.00,Wunderground v.1.15,2013-07-30 13:34:00,
2013-07-30 05:39:00,54.3,51.7,30.18,NNW,342,0.0,2.0,91,0.00,,,0.00,Wunderground v.1.15,2013-07-30 13:39:00,
2013-07-30 05:45:00,54.2,51.9,30.18,NNW,343,0.0,2.0,92,0.00,,,0.00,Wunderground v.1.15,2013-07-30 13:45:00,
2013-07-30 05:50:00,54.3,52.0,30.18,NNW,342,0.0,2.0,92,0.00,,,0.00,Wunderground v.1.15,2013-07-30 13:50:00,
2013-07-30 05:55:00,54.2,51.9,30.18,NNW,343,0.0,2.0,92,0.00,,,0.00,Wunderground v.1.15,2013-07-30 13:55:00,
2013-07-30 06:01:00,54.3,52.0,30.18,NNW,343,0.0,1.0,92,0.00,,,0.00,Wunderground v.1.15,2013-07-30 14:01:00,
2013-07-30 06:06:00,54.3,52.0,30.18,NNW,343,0.0,1.0,92,0.00,,,0.00,Wunderground v.1.15,2013-07-30 14:06:00,
2013-07-30 06:11:00,54.4,52.1,30.18,NNW,343,0.0,1.0,92,0.00,,,0.00,Wunderground v.1.15,2013-07-30 14:11:00,
2013-07-30 06:17:00,54.4,52.1,30.18,NNW,343,0.0,1.0,92,0.00,,,0.00,Wunderground v.1.15,2013-07-30 14:17:00,
2013-07-30 06:22:00,54.5,51.9,30.18,NNW,343,0.0,1.0,91,0.00,,,0.00,Wunderground v.1.15,2013-07-30 14:22:00,
2013-07-30 06:27:00,54.6,52.0,30.18,NNW,343,0.0,1.0,91,0.00,,,0.00,Wunderground v.1.15,2013-07-30 14:27:00,
2013-07-30 06:32:00,54.8,52.5,30.18,NNW,343,0.0,1.0,92,0.00,,,0.00,Wunderground v.1.15,2013-07-30 14:32:00,
2013-07-30 06:38:00,55.1,52.5,30.18,NNW,343,0.0,1.0,91,0.00,,,0.00,Wunderground v.1.15,2013-07-30 14:38:00,
2013-07-30 06:44:00,55.3,52.7,30.18,NNW,343,0.0,1.0,91,0.00,,,0.00,Wunderground v.1.15,2013-07-30 14:44:00,
2013-07-30 06:49:00,55.5,52.9,30.18,NNW,343,0.0,1.0,91,0.00,,,0.00,Wunderground v.1.15,2013-07-30 14:49:00,
2013-07-30 06:55:00,55.9,53.0,30.18,NNW,343,0.0,1.0,90,0.00,,,0.00,Wunderground v.1.15,2013-07-30 14:55:00,
2013-07-30 07:01:00,56.3,53.4,30.18,NNW,343,0.0,0.0,90,0.00,,,0.00,Wunderground v.1.15,2013-07-30 15:01:00,
2013-07-30 07:06:00,56.7,53.5,30.18,NNW,343,0.0,0.0,89,0.00,,,0.00,Wunderground v.1.15,2013-07-30 15:06:00,
2013-07-30 07:12:00,57.0,53.5,30.18,NNW,343,0.0,0.0,88,0.00,,,0.00,Wunderground v.1.15,2013-07-30 15:12:00,
2013-07-30 07:17:00,57.3,53.8,30.18,NNW,343,0.0,0.0,88,0.00,,,0.00,Wunderground v.1.15,2013-07-30 15:17:00,
2013-07-30 07:22:00,57.6,54.1,30.18,NNW,343,0.0,0.0,88,0.00,,,0.00,Wunderground v.1.15,2013-07-30 15:22:00,
2013-07-30 07:28:00,57.9,54.4,30.18,NNW,343,0.0,0.0,88,0.00,,,0.00,Wunderground v.1.15,2013-07-30 15:28:00,
2013-07-30 07:33:00,58.2,54.3,30.18,NNW,343,0.0,0.0,87,0.00,,,0.00,Wunderground v.1.15,2013-07-30 15:33:00,
2013-07-30 07:38:00,58.6,54.1,30.18,NNW,343,0.0,0.0,85,0.00,,,0.00,Wunderground v.1.15,2013-07-30 15:38:00,
2013-07-30 07:44:00,59.1,54.6,30.18,NNW,343,0.0,1.0,85,0.00,,,0.00,Wunderground v.1.15,2013-07-30 15:44:00,
2013-07-30 07:50:00,59.6,55.1,30.18,NNW,343,0.0,0.0,85,0.00,,,0.00,Wunderground v.1.15,2013-07-30 15:50:00,
2013-07-30 07:55:00,59.8,55.0,30.18,NNW,343,0.0,0.0,84,0.00,,,0.00,Wunderground v.1.15,2013-07-30 15:55:00,
2013-07-30 08:01:00,60.2,55.3,30.18,NNW,343,0.0,0.0,84,0.00,,,0.00,Wunderground v.1.15,2013-07-30 16:01:00,
2013-07-30 08:06:00,60.2,55.0,30.18,NNW,343,0.0,0.0,83,0.00,,,0.00,Wunderground v.1.15,2013-07-30 16:06:00,
2013-07-30 08:12:00,59.9,54.7,30.18,NNE,33,0.0,1.0,83,0.00,,,0.00,Wunderground v.1.15,2013-07-30 16:12:00,
2013-07-30 08:17:00,59.4,54.6,30.18,NE,51,1.0,1.0,84,0.00,,,0.00,Wunderground v.1.15,2013-07-30 16:17:00,
2013-07-30 08:22:00,59.0,54.5,30.18,NE,50,0.0,1.0,85,0.00,,,0.00,Wunderground v.1.15,2013-07-30 16:22:00,
2013-07-30 08:28:00,58.8,54.3,30.18,ESE,116,0.0,1.0,85,0.00,,,0.00,Wunderground v.1.15,2013-07-30 16:28:00,
2013-07-30 08:33:00,58.6,54.1,30.19,ESE,118,0.0,0.0,85,0.00,,,0.00,Wunderground v.1.15,2013-07-30 16:33:00,
2013-07-30 08:38:00,58.7,54.5,30.19,ESE,118,0.0,0.0,86,0.00,,,0.00,Wunderground v.1.15,2013-07-30 16:38:00,
2013-07-30 08:44:00,58.9,54.7,30.19,ESE,118,0.0,0.0,86,0.00,,,0.00,Wunderground v.1.15,2013-07-30 16:44:00,
2013-07-30 08:50:00,59.0,54.5,30.19,ESE,107,0.0,0.0,85,0.00,,,0.00,Wunderground v.1.15,2013-07-30 16:50:00,
2013-07-30 08:55:00,59.1,54.6,30.19,ESE,106,0.0,0.0,85,0.00,,,0.00,Wunderground v.1.15,2013-07-30 16:55:00,
2013-07-30 09:01:00,59.3,54.8,30.19,ESE,106,0.0,1.0,85,0.00,,,0.00,Wunderground v.1.15,2013-07-30 17:01:00,
2013-07-30 09:06:00,59.5,55.0,30.19,SE,140,0.0,1.0,85,0.00,,,0.00,Wunderground v.1.15,2013-07-30 17:06:00,
2013-07-30 09:11:00,59.5,55.0,30.19,SE,141,0.0,1.0,85,0.00,,,0.00,Wunderground v.1.15,2013-07-30 17:11:00,
2013-07-30 09:16:00,59.6,55.1,30.19,SE,141,0.0,1.0,85,0.00,,,0.00,Wunderground v.1.15,2013-07-30 17:16:00,
2013-07-30 09:21:00,60.1,55.6,30.19,SE,131,0.0,1.0,85,0.00,,,0.00,Wunderground v.1.15,2013-07-30 17:21:00,
2013-07-30 09:27:00,60.6,56.1,30.19,ESE,103,0.0,1.0,85,0.00,,,0.00,Wunderground v.1.15,2013-07-30 17:27:00,
2013-07-30 09:33:00,61.2,56.0,30.19,East,101,0.0,2.0,83,0.00,,,0.00,Wunderground v.1.15,2013-07-30 17:33:00,
2013-07-30 09:39:00,61.3,56.1,30.19,East,93,1.0,1.0,83,0.00,,,0.00,Wunderground v.1.15,2013-07-30 17:39:00,
2013-07-30 09:44:00,61.3,56.1,30.19,ENE,59,1.0,2.0,83,0.00,,,0.00,Wunderground v.1.15,2013-07-30 17:44:00,
2013-07-30 09:50:00,61.3,56.1,30.19,East,80,1.0,1.0,83,0.00,,,0.00,Wunderground v.1.15,2013-07-30 17:50:00,
2013-07-30 09:56:00,61.6,56.0,30.19,East,98,1.0,2.0,82,0.00,,,0.00,Wunderground v.1.15,2013-07-30 17:56:00,
2013-07-30 10:02:00,61.7,56.1,30.19,East,95,1.0,3.0,82,0.00,,,0.00,Wunderground v.1.15,2013-07-30 18:02:00,
2013-07-30 10:07:00,61.7,55.8,30.19,ESE,102,0.0,3.0,81,0.00,,,0.00,Wunderground v.1.15,2013-07-30 18:07:00,
2013-07-30 10:13:00,61.9,56.3,30.19,ENE,62,1.0,3.0,82,0.00,,,0.00,Wunderground v.1.15,2013-07-30 18:13:00,
2013-07-30 10:18:00,61.9,56.0,30.19,East,97,1.0,3.0,81,0.00,,,0.00,Wunderground v.1.15,2013-07-30 18:18:00,
2013-07-30 10:23:00,62.0,56.1,30.19,ESE,104,1.0,3.0,81,0.00,,,0.00,Wunderground v.1.15,2013-07-30 18:23:00,
2013-07-30 10:29:00,62.5,56.6,30.20,East,89,0.0,3.0,81,0.00,,,0.00,Wunderground v.1.15,2013-07-30 18:29:00,
2013-07-30 10:35:00,62.7,56.4,30.20,East,101,0.0,3.0,80,0.00,,,0.00,Wunderground v.1.15,2013-07-30 18:35:00,
2013-07-30 10:40:00,62.8,56.5,30.19,SE,145,1.0,3.0,80,0.00,,,0.00,Wunderground v.1.15,2013-07-30 18:40:00,
2013-07-30 10:45:00,63.1,56.1,30.20,ESE,116,1.0,3.0,78,0.00,,,0.00,Wunderground v.1.15,2013-07-30 18:45:00,
2013-07-30 10:51:00,63.4,56.8,30.20,ENE,66,0.0,3.0,79,0.00,,,0.00,Wunderground v.1.15,2013-07-30 18:51:00,
2013-07-30 10:56:00,64.0,57.0,30.19,SE,129,0.0,3.0,78,0.00,,,0.00,Wunderground v.1.15,2013-07-30 18:56:00,
2013-07-30 11:01:00,64.4,57.4,30.20,ESE,112,0.0,2.0,78,0.00,,,0.00,Wunderground v.1.15,2013-07-30 19:01:00,
2013-07-30 11:07:00,64.6,57.2,30.19,East,80,0.0,2.0,77,0.00,,,0.00,Wunderground v.1.15,2013-07-30 19:07:00,
2013-07-30 11:12:00,65.2,57.4,30.20,East,96,0.0,2.0,76,0.00,,,0.00,Wunderground v.1.15,2013-07-30 19:12:00,
2013-07-30 11:18:00,65.1,56.6,30.20,ENE,74,1.0,3.0,74,0.00,,,0.00,Wunderground v.1.15,2013-07-30 19:18:00,
2013-07-30 11:23:00,65.1,57.3,30.20,East,87,2.0,3.0,76,0.00,,,0.00,Wunderground v.1.15,2013-07-30 19:23:00,
2013-07-30 11:29:00,65.0,56.9,30.20,ENE,78,2.0,3.0,75,0.00,,,0.00,Wunderground v.1.15,2013-07-30 19:29:00,
2013-07-30 11:34:00,64.8,57.4,30.19,ESE,102,2.0,5.0,77,0.00,,,0.00,Wunderground v.1.15,2013-07-30 19:34:00,
2013-07-30 11:40:00,65.6,57.8,30.19,ESE,105,1.0,2.0,76,0.00,,,0.00,Wunderground v.1.15,2013-07-30 19:40:00,
2013-07-30 11:45:00,66.3,58.1,30.19,ESE,110,1.0,3.0,75,0.00,,,0.00,Wunderground v.1.15,2013-07-30 19:45:00,
2013-07-30 11:50:00,66.6,57.7,30.20,NE,50,1.0,4.0,73,0.00,,,0.00,Wunderground v.1.15,2013-07-30 19:50:00,
2013-07-30 11:56:00,66.3,57.4,30.20,ENE,72,2.0,4.0,73,0.00,,,0.00,Wunderground v.1.15,2013-07-30 19:56:00,
2013-07-30 12:01:00,66.3,57.4,30.20,SSE,156,2.0,6.0,73,0.00,,,0.00,Wunderground v.1.15,2013-07-30 20:01:00,
2013-07-30 12:06:00,66.3,57.4,30.20,SSW,193,3.0,6.0,73,0.00,,,0.00,Wunderground v.1.15,2013-07-30 20:06:00,
2013-07-30 12:12:00,66.0,57.1,30.20,West,268,4.0,7.0,73,0.00,,,0.00,Wunderground v.1.15,2013-07-30 20:12:00,
2013-07-30 12:17:00,65.8,56.9,30.20,WSW,249,4.0,7.0,73,0.00,,,0.00,Wunderground v.1.15,2013-07-30 20:17:00,
2013-07-30 12:23:00,65.5,56.6,30.20,WNW,291,3.0,8.0,73,0.00,,,0.00,Wunderground v.1.15,2013-07-30 20:23:00,
2013-07-30 12:29:00,65.0,56.5,30.20,NW,322,4.0,4.0,74,0.00,,,0.00,Wunderground v.1.15,2013-07-30 20:29:00,
2013-07-30 12:34:00,65.7,57.6,30.20,South,176,3.0,5.0,75,0.00,,,0.00,Wunderground v.1.15,2013-07-30 20:34:00,
2013-07-30 12:39:00,65.9,57.4,30.20,NW,304,3.0,3.0,74,0.00,,,0.00,Wunderground v.1.15,2013-07-30 20:39:00,
2013-07-30 12:45:00,65.6,57.1,30.20,West,264,4.0,6.0,74,0.00,,,0.00,Wunderground v.1.15,2013-07-30 20:45:00,
2013-07-30 12:50:00,65.2,56.7,30.20,WNW,287,4.0,7.0,74,0.00,,,0.00,Wunderground v.1.15,2013-07-30 20:50:00,
2013-07-30 12:55:00,65.1,56.6,30.20,WSW,250,4.0,7.0,74,0.00,,,0.00,Wunderground v.1.15,2013-07-30 20:55:00,
2013-07-30 13:01:00,65.2,57.4,30.20,SW,226,3.0,9.0,76,0.00,,,0.00,Wunderground v.1.15,2013-07-30 21:01:00,
2013-07-30 13:07:00,65.8,56.9,30.20,SSW,213,3.0,9.0,73,0.00,,,0.00,Wunderground v.1.15,2013-07-30 21:07:00,
2013-07-30 13:12:00,65.3,57.2,30.20,West,273,4.0,9.0,75,0.00,,,0.00,Wunderground v.1.15,2013-07-30 21:12:00,
2013-07-30 13:17:00,65.2,56.7,30.20,West,276,5.0,9.0,74,0.00,,,0.00,Wunderground v.1.15,2013-07-30 21:17:00,
2013-07-30 13:22:00,65.1,56.6,30.20,West,267,4.0,9.0,74,0.00,,,0.00,Wunderground v.1.15,2013-07-30 21:22:00,
2013-07-30 13:27:00,65.0,56.9,30.20,WSW,249,4.0,9.0,75,0.00,,,0.00,Wunderground v.1.15,2013-07-30 21:27:00,
2013-07-30 13:33:00,65.4,56.9,30.20,West,261,4.0,9.0,74,0.00,,,0.00,Wunderground v.1.15,2013-07-30 21:33:00,
2013-07-30 13:39:00,65.7,56.8,30.20,WNW,285,3.0,9.0,73,0.00,,,0.00,Wunderground v.1.15,2013-07-30 21:39:00,
2013-07-30 13:44:00,65.4,56.5,30.20,WSW,257,5.0,11.0,73,0.00,,,0.00,Wunderground v.1.15,2013-07-30 21:44:00,
2013-07-30 13:50:00,64.8,56.3,30.20,WNW,285,6.0,9.0,74,0.00,,,0.00,Wunderground v.1.15,2013-07-30 21:50:00,
2013-07-30 13:55:00,65.0,56.5,30.20,SW,226,5.0,9.0,74,0.00,,,0.00,Wunderground v.1.15,2013-07-30 21:55:00,
2013-07-30 14:00:00,65.4,56.9,30.20,WSW,239,4.0,11.0,74,0.00,,,0.00,Wunderground v.1.15,2013-07-30 22:00:00,
2013-07-30 14:05:00,66.1,57.6,30.20,SW,218,3.0,11.0,74,0.00,,,0.00,Wunderground v.1.15,2013-07-30 22:05:00,
2013-07-30 14:10:00,67.0,57.7,30.20,South,185,2.0,11.0,72,0.00,,,0.00,Wunderground v.1.15,2013-07-30 22:10:00,
2013-07-30 14:16:00,67.3,58.0,30.20,SW,218,3.0,11.0,72,0.00,,,0.00,Wunderground v.1.15,2013-07-30 22:16:00,
2013-07-30 14:21:00,67.4,57.7,30.20,SSW,210,4.0,11.0,71,0.00,,,0.00,Wunderground v.1.15,2013-07-30 22:21:00,
2013-07-30 14:26:00,67.0,57.3,30.20,SSW,211,4.0,11.0,71,0.00,,,0.00,Wunderground v.1.15,2013-07-30 22:26:00,
2013-07-30 14:28:00,67.2,57.5,30.20,South,171,4.0,11.0,71,0.00,,,0.00,Wunderground v.1.15,2013-07-30 22:28:00,
2013-07-30 14:34:00,67.6,57.5,30.20,South,176,3.0,11.0,70,0.00,,,0.00,Wunderground v.1.15,2013-07-30 22:34:00,
2013-07-30 14:39:00,67.7,57.2,30.20,WSW,252,4.0,4.0,69,0.00,,,0.00,Wunderground v.1.15,2013-07-30 22:39:00,
2013-07-30 14:45:00,67.4,57.3,30.20,South,183,3.0,11.0,70,0.00,,,0.00,Wunderground v.1.15,2013-07-30 22:45:00,
2013-07-30 14:50:00,67.6,57.9,30.20,SSW,201,4.0,11.0,71,0.00,,,0.00,Wunderground v.1.15,2013-07-30 22:50:00,
2013-07-30 14:55:00,67.8,57.3,30.20,SSE,157,5.0,11.0,69,0.00,,,0.00,Wunderground v.1.15,2013-07-30 22:55:00,
2013-07-30 15:01:00,67.9,57.4,30.19,South,189,5.0,10.0,69,0.00,,,0.00,Wunderground v.1.15,2013-07-30 23:01:00,
2013-07-30 15:06:00,68.1,57.1,30.19,SSE,158,5.0,10.0,68,0.00,,,0.00,Wunderground v.1.15,2013-07-30 23:06:00,
2013-07-30 15:12:00,67.5,57.4,30.19,SSW,207,5.0,10.0,70,0.00,,,0.00,Wunderground v.1.15,2013-07-30 23:12:00,
2013-07-30 15:18:00,68.0,57.8,30.19,South,191,5.0,10.0,70,0.00,,,0.00,Wunderground v.1.15,2013-07-30 23:18:00,
2013-07-30 15:23:00,68.5,58.7,30.19,SE,140,4.0,10.0,71,0.00,,,0.00,Wunderground v.1.15,2013-07-30 23:23:00,
2013-07-30 15:29:00,68.5,57.9,30.19,SSE,167,4.0,4.0,69,0.00,,,0.00,Wunderground v.1.15,2013-07-30 23:29:00,
2013-07-30 15:35:00,68.0,57.8,30.19,South,185,5.0,10.0,70,0.00,,,0.00,Wunderground v.1.15,2013-07-30 23:35:00,
2013-07-30 15:40:00,67.9,57.8,30.19,South,188,5.0,7.0,70,0.00,,,0.00,Wunderground v.1.15,2013-07-30 23:40:00,
2013-07-30 15:45:00,67.4,57.3,30.19,SSE,160,5.0,12.0,70,0.00,,,0.00,Wunderground v.1.15,2013-07-30 23:45:00,
2013-07-30 15:50:00,67.4,57.3,30.19,South,177,5.0,10.0,70,0.00,,,0.00,Wunderground v.1.15,2013-07-30 23:50:00,
2013-07-30 15:56:00,67.7,58.0,30.19,SE,146,4.0,10.0,71,0.00,,,0.00,Wunderground v.1.15,2013-07-30 23:56:00,
2013-07-30 16:02:00,68.5,58.7,30.19,South,170,3.0,9.0,71,0.00,,,0.00,Wunderground v.1.15,2013-07-31 00:02:00,
2013-07-30 16:07:00,68.2,57.6,30.19,South,172,3.0,9.0,69,0.00,,,0.00,Wunderground v.1.15,2013-07-31 00:07:00,
2013-07-30 16:13:00,67.9,57.4,30.19,South,180,4.0,9.0,69,0.00,,,0.00,Wunderground v.1.15,2013-07-31 00:13:00,
2013-07-30 16:18:00,67.4,57.3,30.19,SW,232,4.0,9.0,70,0.00,,,0.00,Wunderground v.1.15,2013-07-31 00:18:00,
2013-07-30 16:24:00,66.8,56.3,30.19,WSW,251,4.0,9.0,69,0.00,,,0.00,Wunderground v.1.15,2013-07-31 00:24:00,
2013-07-30 16:30:00,66.9,57.2,30.19,SSW,210,4.0,9.0,71,0.00,,,0.00,Wunderground v.1.15,2013-07-31 00:30:00,
2013-07-30 16:36:00,67.2,57.1,30.19,SSW,212,3.0,9.0,70,0.00,,,0.00,Wunderground v.1.15,2013-07-31 00:36:00,
2013-07-30 16:41:00,67.1,57.0,30.19,WSW,252,3.0,9.0,70,0.00,,,0.00,Wunderground v.1.15,2013-07-31 00:41:00,
2013-07-30 16:47:00,67.0,56.9,30.19,SW,214,3.0,9.0,70,0.00,,,0.00,Wunderground v.1.15,2013-07-31 00:47:00,
2013-07-30 16:53:00,66.7,57.0,30.19,WSW,237,3.0,9.0,71,0.00,,,0.00,Wunderground v.1.15,2013-07-31 00:53:00,
2013-07-30 16:59:00,66.3,56.2,30.19,WNW,295,4.0,4.0,70,0.00,,,0.00,Wunderground v.1.15,2013-07-31 00:59:00,
2013-07-30 17:05:00,66.4,56.7,30.19,WSW,246,3.0,7.0,71,0.00,,,0.00,Wunderground v.1.15,2013-07-31 01:05:00,
2013-07-30 17:10:00,66.5,56.4,30.19,WNW,282,2.0,7.0,70,0.00,,,0.00,Wunderground v.1.15,2013-07-31 01:10:00,
2013-07-30 17:16:00,66.2,56.5,30.19,SW,223,3.0,8.0,71,0.00,,,0.00,Wunderground v.1.15,2013-07-31 01:16:00,
2013-07-30 17:22:00,66.2,56.1,30.19,SW,236,4.0,7.0,70,0.00,,,0.00,Wunderground v.1.15,2013-07-31 01:22:00,
2013-07-30 17:28:00,65.7,56.0,30.19,WNW,286,4.0,8.0,71,0.00,,,0.00,Wunderground v.1.15,2013-07-31 01:28:00,
2013-07-30 17:34:00,65.6,55.9,30.19,WSW,243,4.0,7.0,71,0.00,,,0.00,Wunderground v.1.15,2013-07-31 01:34:00,
2013-07-30 17:40:00,65.3,55.7,30.19,SW,224,4.0,7.0,71,0.00,,,0.00,Wunderground v.1.15,2013-07-31 01:40:00,
2013-07-30 17:46:00,65.3,55.7,30.19,WSW,243,4.0,7.0,71,0.00,,,0.00,Wunderground v.1.15,2013-07-31 01:46:00,
2013-07-30 17:52:00,64.9,55.7,30.18,SW,226,5.0,10.0,72,0.00,,,0.00,Wunderground v.1.15,2013-07-31 01:52:00,
2013-07-30 17:58:00,65.0,55.8,30.18,SW,231,4.0,10.0,72,0.00,,,0.00,Wunderground v.1.15,2013-07-31 01:58:00,
2013-07-30 18:03:00,65.0,55.8,30.18,WSW,237,4.0,12.0,72,0.00,,,0.00,Wunderground v.1.15,2013-07-31 02:03:00,
2013-07-30 18:08:00,65.0,55.8,30.18,SW,218,5.0,12.0,72,0.00,,,0.00,Wunderground v.1.15,2013-07-31 02:08:00,
2013-07-30 18:14:00,65.1,55.5,30.18,NW,314,4.0,12.0,71,0.00,,,0.00,Wunderground v.1.15,2013-07-31 02:14:00,
2013-07-30 18:19:00,65.2,55.9,30.18,West,259,4.0,12.0,72,0.00,,,0.00,Wunderground v.1.15,2013-07-31 02:19:00,
2013-07-30 18:24:00,65.2,55.6,30.18,West,264,3.0,12.0,71,0.00,,,0.00,Wunderground v.1.15,2013-07-31 02:24:00,
2013-07-30 18:30:00,65.0,55.4,30.18,WSW,244,4.0,12.0,71,0.00,,,0.00,Wunderground v.1.15,2013-07-31 02:30:00,
2013-07-30 18:35:00,64.9,55.3,30.18,SW,232,4.0,12.0,71,0.00,,,0.00,Wunderground v.1.15,2013-07-31 02:35:00,
2013-07-30 18:40:00,64.7,55.1,30.18,SSW,212,5.0,12.0,71,0.00,,,0.00,Wunderground v.1.15,2013-07-31 02:40:00,
2013-07-30 18:46:00,64.6,54.6,30.18,WSW,256,5.0,12.0,70,0.00,,,0.00,Wunderground v.1.15,2013-07-31 02:46:00,
2013-07-30 18:52:00,64.0,54.0,30.18,WSW,245,5.0,12.0,70,0.00,,,0.00,Wunderground v.1.15,2013-07-31 02:52:00,
2013-07-30 18:58:00,63.7,54.1,30.18,WNW,283,5.0,12.0,71,0.00,,,0.00,Wunderground v.1.15,2013-07-31 02:58:00,
2013-07-30 19:04:00,63.8,54.2,30.18,West,274,4.0,12.0,71,0.00,,,0.00,Wunderground v.1.15,2013-07-31 03:04:00,
2013-07-30 19:09:00,63.7,54.1,30.18,West,274,5.0,5.0,71,0.00,,,0.00,Wunderground v.1.15,2013-07-31 03:09:00,
2013-07-30 19:14:00,64.0,54.8,30.18,WNW,289,4.0,12.0,72,0.00,,,0.00,Wunderground v.1.15,2013-07-31 03:14:00,
2013-07-30 19:20:00,63.8,53.8,30.18,WSW,256,3.0,12.0,70,0.00,,,0.00,Wunderground v.1.15,2013-07-31 03:20:00,
2013-07-30 19:25:00,63.1,53.5,30.18,West,262,5.0,12.0,71,0.00,,,0.00,Wunderground v.1.15,2013-07-31 03:25:00,
2013-07-30 19:30:00,62.7,53.9,30.18,West,269,5.0,12.0,73,0.00,,,0.00,Wunderground v.1.15,2013-07-31 03:30:00,
2013-07-30 19:36:00,62.6,53.8,30.18,WSW,253,4.0,12.0,73,0.00,,,0.00,Wunderground v.1.15,2013-07-31 03:36:00,
2013-07-30 19:41:00,62.1,53.7,30.18,WSW,247,5.0,12.0,74,0.00,,,0.00,Wunderground v.1.15,2013-07-31 03:41:00,
2013-07-30 19:46:00,61.6,53.2,30.18,SSW,200,6.0,12.0,74,0.00,,,0.00,Wunderground v.1.15,2013-07-31 03:46:00,
2013-07-30 19:52:00,61.5,53.5,30.18,WSW,246,6.0,12.0,75,0.00,,,0.00,Wunderground v.1.15,2013-07-31 03:52:00,
2013-07-30 19:57:00,61.5,53.5,30.18,West,274,4.0,12.0,75,0.00,,,0.00,Wunderground v.1.15,2013-07-31 03:57:00,
2013-07-30 20:01:00,61.6,53.6,30.18,South,186,3.0,12.0,75,0.00,,,0.00,Wunderground v.1.15,2013-07-31 04:01:00,
2013-07-30 20:02:00,61.6,53.6,30.18,SW,228,3.0,12.0,75,0.00,,,0.00,Wunderground v.1.15,2013-07-31 04:02:00,
2013-07-30 20:04:00,61.6,53.6,30.18,SSW,208,3.0,12.0,75,0.00,,,0.00,Wunderground v.1.15,2013-07-31 04:04:00,
2013-07-30 20:05:00,61.5,53.5,30.18,WSW,253,3.0,12.0,75,0.00,,,0.00,Wunderground v.1.15,2013-07-31 04:05:00,
2013-07-30 20:10:00,61.3,53.3,30.18,WSW,239,3.0,12.0,75,0.00,,,0.00,Wunderground v.1.15,2013-07-31 04:10:00,
2013-07-30 20:16:00,60.9,53.3,30.18,WSW,238,4.0,12.0,76,0.00,,,0.00,Wunderground v.1.15,2013-07-31 04:16:00,
2013-07-30 20:18:00,60.9,53.3,30.18,WSW,255,4.0,12.0,76,0.00,,,0.00,Wunderground v.1.15,2013-07-31 04:18:00,
2013-07-30 20:24:00,60.7,53.1,30.18,West,264,5.0,12.0,76,0.00,,,0.00,Wunderground v.1.15,2013-07-31 04:24:00,
2013-07-30 20:29:00,60.4,53.2,30.18,West,260,5.0,5.0,77,0.00,,,0.00,Wunderground v.1.15,2013-07-31 04:29:00,
2013-07-30 20:34:00,60.4,53.2,30.18,West,262,4.0,12.0,77,0.00,,,0.00,Wunderground v.1.15,2013-07-31 04:34:00,
2013-07-30 20:40:00,60.5,53.3,30.18,WSW,254,3.0,5.0,77,0.00,,,0.00,Wunderground v.1.15,2013-07-31 04:40:00,
2013-07-30 20:45:00,60.5,53.3,30.18,WNW,285,3.0,12.0,77,0.00,,,0.00,Wunderground v.1.15,2013-07-31 04:45:00,
2013-07-30 20:51:00,60.3,53.1,30.18,WSW,245,3.0,12.0,77,0.00,,,0.00,Wunderground v.1.15,2013-07-31 04:51:00,
2013-07-30 20:57:00,60.2,53.3,30.18,West,276,4.0,12.0,78,0.00,,,0.00,Wunderground v.1.15,2013-07-31 04:57:00,
2013-07-30 21:02:00,60.0,53.1,30.18,West,268,5.0,7.0,78,0.00,,,0.00,Wunderground v.1.15,2013-07-31 05:02:00,
2013-07-30 21:07:00,59.8,53.3,30.18,West,280,6.0,7.0,79,0.00,,,0.00,Wunderground v.1.15,2013-07-31 05:07:00,
2013-07-30 21:13:00,59.6,53.4,30.18,WNW,296,6.0,9.0,80,0.00,,,0.00,Wunderground v.1.15,2013-07-31 05:13:00,
2013-07-30 21:19:00,59.5,53.3,30.18,WNW,283,8.0,8.0,80,0.00,,,0.00,Wunderground v.1.15,2013-07-31 05:19:00,
2013-07-30 21:24:00,59.5,53.3,30.18,WNW,283,8.0,8.0,80,0.00,,,0.00,Wunderground v.1.15,2013-07-31 05:24:00,
2013-07-30 21:29:00,59.4,53.2,30.18,West,278,8.0,8.0,80,0.00,,,0.00,Wunderground v.1.15,2013-07-31 05:29:00,
2013-07-30 21:34:00,59.3,53.5,30.18,WNW,289,8.0,9.0,81,0.00,,,0.00,Wunderground v.1.15,2013-07-31 05:34:00,
2013-07-30 21:39:00,59.1,53.3,30.18,West,276,7.0,7.0,81,0.00,,,0.00,Wunderground v.1.15,2013-07-31 05:39:00,
2013-07-30 21:45:00,58.9,53.1,30.18,WNW,297,7.0,8.0,81,0.00,,,0.00,Wunderground v.1.15,2013-07-31 05:45:00,
2013-07-30 21:50:00,58.9,53.1,30.18,WNW,282,7.0,8.0,81,0.00,,,0.00,Wunderground v.1.15,2013-07-31 05:50:00,
2013-07-30 21:56:00,58.8,53.0,30.18,WNW,283,6.0,8.0,81,0.00,,,0.00,Wunderground v.1.15,2013-07-31 05:56:00,
2013-07-30 22:02:00,58.8,53.0,30.18,WNW,283,6.0,10.0,81,0.00,,,0.00,Wunderground v.1.15,2013-07-31 06:02:00,
2013-07-30 22:07:00,58.7,53.2,30.18,WNW,289,6.0,10.0,82,0.00,,,0.00,Wunderground v.1.15,2013-07-31 06:07:00,
2013-07-30 22:13:00,58.6,53.1,30.18,WNW,284,6.0,10.0,82,0.00,,,0.00,Wunderground v.1.15,2013-07-31 06:13:00,
2013-07-30 22:18:00,58.6,53.1,30.19,WNW,284,6.0,10.0,82,0.00,,,0.00,Wunderground v.1.15,2013-07-31 06:18:00,
2013-07-30 22:24:00,58.7,53.2,30.19,WNW,295,5.0,10.0,82,0.00,,,0.00,Wunderground v.1.15,2013-07-31 06:24:00,
2013-07-30 22:30:00,58.7,53.2,30.19,WNW,301,6.0,10.0,82,0.00,,,0.00,Wunderground v.1.15,2013-07-31 06:30:00,
2013-07-30 22:35:00,58.7,53.2,30.18,WNW,295,6.0,10.0,82,0.00,,,0.00,Wunderground v.1.15,2013-07-31 06:35:00,
2013-07-30 22:40:00,58.5,53.0,30.19,NW,304,6.0,10.0,82,0.00,,,0.00,Wunderground v.1.15,2013-07-31 06:40:00,
2013-07-30 22:46:00,58.2,53.1,30.19,NW,305,5.0,10.0,83,0.00,,,0.00,Wunderground v.1.15,2013-07-31 06:46:00,
2013-07-30 22:51:00,58.3,53.2,30.19,WNW,302,4.0,10.0,83,0.00,,,0.00,Wunderground v.1.15,2013-07-31 06:51:00,
2013-07-30 22:56:00,58.2,53.1,30.19,WNW,294,3.0,10.0,83,0.00,,,0.00,Wunderground v.1.15,2013-07-31 06:56:00,
2013-07-30 23:02:00,58.0,53.2,30.19,NW,308,2.0,6.0,84,0.00,,,0.00,Wunderground v.1.15,2013-07-31 07:02:00,
2013-07-30 23:07:00,58.0,53.2,30.19,WNW,293,2.0,6.0,84,0.00,,,0.00,Wunderground v.1.15,2013-07-31 07:07:00,
2013-07-30 23:12:00,58.0,53.2,30.19,WNW,303,2.0,6.0,84,0.00,,,0.00,Wunderground v.1.15,2013-07-31 07:12:00,
2013-07-30 23:17:00,58.2,53.4,30.19,NW,308,2.0,6.0,84,0.00,,,0.00,Wunderground v.1.15,2013-07-31 07:17:00,
2013-07-30 23:23:00,58.3,53.5,30.19,NW,309,1.0,6.0,84,0.00,,,0.00,Wunderground v.1.15,2013-07-31 07:23:00,
2013-07-30 23:28:00,58.3,53.5,30.19,NW,320,1.0,6.0,84,0.00,,,0.00,Wunderground v.1.15,2013-07-31 07:28:00,
2013-07-30 23:34:00,58.4,53.6,30.19,NW,320,1.0,6.0,84,0.00,,,0.00,Wunderground v.1.15,2013-07-31 07:34:00,
2013-07-30 23:39:00,58.4,53.6,30.19,NW,319,0.0,6.0,84,0.00,,,0.00,Wunderground v.1.15,2013-07-31 07:39:00,
2013-07-30 23:44:00,58.5,53.7,30.19,NW,319,0.0,6.0,84,0.00,,,0.00,Wunderground v.1.15,2013-07-31 07:44:00,
2013-07-30 23:50:00,58.6,53.8,30.19,NW,320,0.0,6.0,84,0.00,,,0.00,Wunderground v.1.15,2013-07-31 07:50:00,
2013-07-30 23:55:00,58.5,53.7,30.19,NW,319,0.0,6.0,84,0.00,,,0.00,Wunderground v.1.15,2013-07-31 07:55:00,